Harrisonburg, Virginia
Current Conditions -  °F | °C
As of 11:35 AM on Tuesday 21 Oct 2014 (Local Time) from KVBW Reporting Station
Clear Clear  
Wind Chill: 63°   Ceiling: Unl
Heat Index: 63°   Visibility: 10mi
Dew Point: 46°   Wind: 5mph
Humidity: 55%   Direction: 210°SSW
Pressure: 29.87"   Gusts: NA
Location:  38.45°N, 78.87°W
Report Text: KVBW 211535Z AUTO 21004KT 10SM CLR 17/08 A2987 RMK AO2 T01710080
Loading
Personal Weather Stations






























Interactive Weather Map New forecast layout! Learn more

10-Day Weather Forecast

Advertisements
Track Severe Weather on mobile